DLH8PN ENGM-EDDM
Flight info
| Callsign | DLH8PN |
|---|---|
| Flight time | 1h 55m |
| Altitude | 37000 |
| Route | OKSAT L996 KELIN DCT NEDIK DCT SODRO/N0407F310 T703 LULAR/N0403F300 T105 LANDU LANDU2B |
| Aircraft | A320/M-SDE2E3FGIJ1LORWXYZ/HB1 |
Departure
| Time | 2026-05-05 12:58 |
|---|---|
| Airport | Oslo-Gardermoen International Airport (ENGM) |
Arrival
| Time | 2026-05-05 14:54 |
|---|---|
| Airport | Munich Airport (EDDM) |
| Time | Latitude | Longitude | Altitude | Speed | Heading |
|---|---|---|---|---|---|
| 2026-05-05 12:47 | 60.19488 | 11.09272 | 685 ft | 0 kts | 16° |
| 2026-05-05 12:51 | 60.19481 | 11.09268 | 685 ft | 2 kts | 16° |
| 2026-05-05 12:51 | 60.19464 | 11.09258 | 677 ft | 2 kts | 16° |
| 2026-05-05 12:51 | 60.19448 | 11.09251 | 680 ft | 2 kts | 332° |
| 2026-05-05 12:52 | 60.19435 | 11.09270 | 679 ft | 1 kts | 290° |
| 2026-05-05 12:52 | 60.19434 | 11.09271 | 679 ft | 0 kts | 290° |
| 2026-05-05 12:54 | 60.19459 | 11.09071 | 685 ft | 14 kts | 286° |
| 2026-05-05 12:54 | 60.19488 | 11.08873 | 684 ft | 16 kts | 286° |
| 2026-05-05 12:54 | 60.19523 | 11.08624 | 677 ft | 21 kts | 282° |
| 2026-05-05 12:55 | 60.19429 | 11.08472 | 677 ft | 20 kts | 196° |
| 2026-05-05 12:55 | 60.19286 | 11.08390 | 675 ft | 23 kts | 196° |
| 2026-05-05 12:55 | 60.19128 | 11.08297 | 673 ft | 25 kts | 197° |
| 2026-05-05 12:55 | 60.18958 | 11.08198 | 673 ft | 26 kts | 195° |
| 2026-05-05 12:56 | 60.18789 | 11.08103 | 671 ft | 26 kts | 196° |
| 2026-05-05 12:56 | 60.18612 | 11.08000 | 670 ft | 21 kts | 196° |
| 2026-05-05 12:56 | 60.18547 | 11.07860 | 667 ft | 15 kts | 266° |
| 2026-05-05 12:56 | 60.18580 | 11.07592 | 666 ft | 25 kts | 288° |
| 2026-05-05 12:57 | 60.18672 | 11.07477 | 667 ft | 20 kts | 16° |
| 2026-05-05 12:57 | 60.18728 | 11.07507 | 667 ft | 0 kts | 16° |
| 2026-05-05 12:57 | 60.18730 | 11.07508 | 667 ft | 5 kts | 16° |
| 2026-05-05 12:57 | 60.19028 | 11.07676 | 670 ft | 81 kts | 16° |
| 2026-05-05 12:58 | 60.19764 | 11.08105 | 674 ft | 137 kts | 16° |
| 2026-05-05 12:58 | 60.20819 | 11.08703 | 866 ft | 165 kts | 12° |
| 2026-05-05 12:58 | 60.21902 | 11.09324 | 1658 ft | 163 kts | 12° |
| 2026-05-05 12:58 | 60.23011 | 11.09891 | 2328 ft | 167 kts | 8° |
| 2026-05-05 12:59 | 60.24167 | 11.10289 | 2946 ft | 170 kts | 3° |
| 2026-05-05 12:59 | 60.25412 | 11.10859 | 3262 ft | 196 kts | 12° |
| 2026-05-05 12:59 | 60.26794 | 11.11137 | 3508 ft | 213 kts | 351° |
| 2026-05-05 13:00 | 60.30115 | 11.10919 | 4537 ft | 262 kts | 16° |
| 2026-05-05 13:00 | 60.31627 | 11.13075 | 5390 ft | 277 kts | 50° |
| 2026-05-05 13:01 | 60.32129 | 11.24782 | 8175 ft | 294 kts | 90° |
| 2026-05-05 13:01 | 60.32255 | 11.28890 | 9175 ft | 294 kts | 85° |
| 2026-05-05 13:01 | 60.32351 | 11.33048 | 10080 ft | 297 kts | 87° |
| 2026-05-05 13:01 | 60.32424 | 11.37233 | 10950 ft | 299 kts | 87° |
| 2026-05-05 13:02 | 60.32495 | 11.41467 | 11777 ft | 303 kts | 87° |
| 2026-05-05 13:02 | 60.32566 | 11.45698 | 12579 ft | 308 kts | 88° |
| 2026-05-05 13:02 | 60.32510 | 11.50028 | 13394 ft | 311 kts | 102° |
| 2026-05-05 13:02 | 60.31706 | 11.54072 | 14105 ft | 314 kts | 122° |
| 2026-05-05 13:03 | 60.30528 | 11.57824 | 14751 ft | 320 kts | 126° |
| 2026-05-05 13:03 | 60.29305 | 11.61619 | 15340 ft | 327 kts | 126° |
| 2026-05-05 13:03 | 60.28063 | 11.65512 | 15948 ft | 333 kts | 126° |
| 2026-05-05 13:03 | 60.26813 | 11.69501 | 16558 ft | 340 kts | 126° |
| 2026-05-05 13:04 | 60.25553 | 11.73590 | 17165 ft | 347 kts | 126° |
| 2026-05-05 13:04 | 60.24209 | 11.77661 | 17749 ft | 349 kts | 137° |
| 2026-05-05 13:04 | 60.22383 | 11.80779 | 18252 ft | 341 kts | 160° |
| 2026-05-05 13:04 | 60.20255 | 11.82465 | 18735 ft | 326 kts | 180° |
| 2026-05-05 13:05 | 60.18040 | 11.82956 | 19298 ft | 320 kts | 188° |
| 2026-05-05 13:05 | 60.15812 | 11.83294 | 19928 ft | 322 kts | 189° |
| 2026-05-05 13:05 | 60.13575 | 11.83625 | 20567 ft | 323 kts | 190° |
| 2026-05-05 13:05 | 60.11327 | 11.83959 | 21186 ft | 325 kts | 191° |
| 2026-05-05 13:06 | 60.09068 | 11.84303 | 21819 ft | 327 kts | 191° |
| 2026-05-05 13:06 | 60.06791 | 11.84648 | 22418 ft | 329 kts | 192° |
| 2026-05-05 13:06 | 60.04510 | 11.84992 | 23055 ft | 330 kts | 193° |
| 2026-05-05 13:06 | 60.02244 | 11.85337 | 23623 ft | 332 kts | 193° |
| 2026-05-05 13:07 | 59.99935 | 11.85686 | 24110 ft | 334 kts | 193° |
| 2026-05-05 13:07 | 59.97606 | 11.86035 | 24553 ft | 337 kts | 192° |
| 2026-05-05 13:07 | 59.95255 | 11.86386 | 24982 ft | 340 kts | 192° |
| 2026-05-05 13:07 | 59.92883 | 11.86741 | 25436 ft | 343 kts | 192° |
| 2026-05-05 13:08 | 59.90492 | 11.87099 | 25748 ft | 346 kts | 191° |
| 2026-05-05 13:08 | 59.88077 | 11.87468 | 26177 ft | 350 kts | 190° |
| 2026-05-05 13:08 | 59.85647 | 11.87846 | 26621 ft | 352 kts | 190° |
| 2026-05-05 13:08 | 59.83193 | 11.88225 | 27056 ft | 354 kts | 190° |
| 2026-05-05 13:09 | 59.80761 | 11.88596 | 27477 ft | 357 kts | 189° |
| 2026-05-05 13:09 | 59.78278 | 11.88971 | 27909 ft | 359 kts | 189° |
| 2026-05-05 13:09 | 59.75787 | 11.89344 | 28352 ft | 359 kts | 189° |
| 2026-05-05 13:09 | 59.73292 | 11.89716 | 28829 ft | 360 kts | 188° |
| 2026-05-05 13:10 | 59.70784 | 11.90090 | 29257 ft | 362 kts | 188° |
| 2026-05-05 13:10 | 59.68264 | 11.90469 | 29665 ft | 365 kts | 188° |
| 2026-05-05 13:10 | 59.65725 | 11.90850 | 30074 ft | 366 kts | 188° |
| 2026-05-05 13:10 | 59.63192 | 11.91234 | 30493 ft | 365 kts | 188° |
| 2026-05-05 13:11 | 59.60652 | 11.91619 | 30835 ft | 367 kts | 188° |
| 2026-05-05 13:11 | 59.58106 | 11.92004 | 31230 ft | 367 kts | 188° |
| 2026-05-05 13:11 | 59.55591 | 11.92386 | 31631 ft | 367 kts | 187° |
| 2026-05-05 13:11 | 59.53042 | 11.92766 | 32039 ft | 367 kts | 187° |
| 2026-05-05 13:12 | 59.50493 | 11.93143 | 32429 ft | 368 kts | 187° |
| 2026-05-05 13:12 | 59.47943 | 11.93516 | 32803 ft | 368 kts | 187° |
| 2026-05-05 13:12 | 59.45388 | 11.93886 | 33182 ft | 368 kts | 187° |
| 2026-05-05 13:12 | 59.42835 | 11.94257 | 33557 ft | 368 kts | 187° |
| 2026-05-05 13:13 | 59.40282 | 11.94632 | 33911 ft | 368 kts | 187° |
| 2026-05-05 13:13 | 59.37725 | 11.95010 | 34211 ft | 369 kts | 187° |
| 2026-05-05 13:13 | 59.35198 | 11.95382 | 34486 ft | 369 kts | 187° |
| 2026-05-05 13:13 | 59.32640 | 11.95645 | 34652 ft | 367 kts | 191° |
| 2026-05-05 13:14 | 59.30094 | 11.95406 | 34766 ft | 368 kts | 193° |
| 2026-05-05 13:14 | 59.27526 | 11.95110 | 34906 ft | 373 kts | 193° |
| 2026-05-05 13:14 | 59.24920 | 11.94819 | 35018 ft | 377 kts | 193° |
| 2026-05-05 13:14 | 59.22280 | 11.94531 | 35139 ft | 382 kts | 193° |
| 2026-05-05 13:15 | 59.19612 | 11.94245 | 35262 ft | 386 kts | 192° |
| 2026-05-05 13:15 | 59.16911 | 11.93958 | 35383 ft | 391 kts | 192° |
| 2026-05-05 13:15 | 59.14181 | 11.93668 | 35511 ft | 395 kts | 192° |
| 2026-05-05 13:15 | 59.11461 | 11.93374 | 35633 ft | 399 kts | 192° |
| 2026-05-05 13:16 | 59.08679 | 11.93074 | 35758 ft | 403 kts | 192° |
| 2026-05-05 13:16 | 59.05866 | 11.92776 | 35882 ft | 407 kts | 191° |
| 2026-05-05 13:16 | 59.00165 | 11.92169 | 36073 ft | 414 kts | 191° |
| 2026-05-05 13:17 | 58.97273 | 11.91860 | 36203 ft | 417 kts | 191° |
| 2026-05-05 13:17 | 58.94363 | 11.91551 | 36330 ft | 420 kts | 191° |
| 2026-05-05 13:17 | 58.91437 | 11.91238 | 36464 ft | 423 kts | 191° |
| 2026-05-05 13:17 | 58.88488 | 11.90918 | 36593 ft | 425 kts | 191° |
| 2026-05-05 13:18 | 58.85527 | 11.90596 | 36720 ft | 427 kts | 191° |
| 2026-05-05 13:18 | 58.82553 | 11.90282 | 36889 ft | 430 kts | 189° |
| 2026-05-05 13:18 | 58.79564 | 11.90521 | 36939 ft | 443 kts | 179° |
| 2026-05-05 13:18 | 58.76497 | 11.91372 | 36903 ft | 446 kts | 179° |
| 2026-05-05 13:19 | 58.70337 | 11.93074 | 36936 ft | 447 kts | 179° |
| 2026-05-05 13:19 | 58.64177 | 11.94751 | 36940 ft | 447 kts | 179° |
| 2026-05-05 13:20 | 58.58013 | 11.96414 | 36953 ft | 447 kts | 179° |
| 2026-05-05 13:20 | 58.51845 | 11.98063 | 36949 ft | 447 kts | 179° |
| 2026-05-05 13:21 | 58.45683 | 11.99717 | 36906 ft | 447 kts | 179° |
| 2026-05-05 13:21 | 58.39566 | 12.01355 | 36919 ft | 447 kts | 179° |
| 2026-05-05 13:22 | 58.33412 | 12.03004 | 36930 ft | 447 kts | 179° |
| 2026-05-05 13:22 | 58.27254 | 12.04652 | 36935 ft | 447 kts | 179° |
| 2026-05-05 13:23 | 58.21124 | 12.05446 | 36940 ft | 438 kts | 187° |
| 2026-05-05 13:23 | 58.15066 | 12.05448 | 36942 ft | 438 kts | 187° |
| 2026-05-05 13:24 | 58.08964 | 12.05454 | 36952 ft | 438 kts | 187° |
| 2026-05-05 13:24 | 58.02864 | 12.05467 | 36956 ft | 438 kts | 187° |
| 2026-05-05 13:25 | 57.96763 | 12.05490 | 36963 ft | 438 kts | 187° |
| 2026-05-05 13:25 | 57.90661 | 12.05514 | 36966 ft | 438 kts | 187° |
| 2026-05-05 13:26 | 57.84542 | 12.05539 | 36944 ft | 442 kts | 187° |
| 2026-05-05 13:26 | 57.78412 | 12.05564 | 36947 ft | 444 kts | 187° |
| 2026-05-05 13:27 | 57.72227 | 12.05579 | 36925 ft | 445 kts | 187° |
| 2026-05-05 13:27 | 57.66029 | 12.05597 | 36933 ft | 446 kts | 187° |
| 2026-05-05 13:28 | 57.59816 | 12.05621 | 36948 ft | 447 kts | 186° |
| 2026-05-05 13:28 | 57.53629 | 12.05640 | 36964 ft | 448 kts | 186° |
| 2026-05-05 13:29 | 57.47393 | 12.05652 | 36962 ft | 448 kts | 186° |
| 2026-05-05 13:29 | 57.41164 | 12.05678 | 36955 ft | 448 kts | 186° |
| 2026-05-05 13:30 | 57.34937 | 12.05692 | 36970 ft | 447 kts | 186° |
| 2026-05-05 13:30 | 57.28721 | 12.05707 | 36953 ft | 447 kts | 186° |
| 2026-05-05 13:31 | 57.22503 | 12.05733 | 36970 ft | 447 kts | 186° |
| 2026-05-05 13:31 | 57.16315 | 12.05752 | 36975 ft | 447 kts | 186° |
| 2026-05-05 13:32 | 57.10099 | 12.05769 | 36975 ft | 447 kts | 186° |
| 2026-05-05 13:32 | 57.03887 | 12.05788 | 36951 ft | 446 kts | 186° |
| 2026-05-05 13:33 | 56.97678 | 12.05811 | 36962 ft | 446 kts | 186° |
| 2026-05-05 13:33 | 56.91472 | 12.05817 | 36967 ft | 446 kts | 186° |
| 2026-05-05 13:34 | 56.85305 | 12.05840 | 36973 ft | 446 kts | 186° |
| 2026-05-05 13:34 | 56.79101 | 12.05852 | 36943 ft | 446 kts | 186° |
| 2026-05-05 13:35 | 56.72895 | 12.05869 | 36960 ft | 446 kts | 186° |
| 2026-05-05 13:35 | 56.66688 | 12.05896 | 36965 ft | 446 kts | 185° |
| 2026-05-05 13:36 | 56.60477 | 12.05918 | 36972 ft | 446 kts | 186° |
| 2026-05-05 13:36 | 56.54268 | 12.05934 | 36976 ft | 446 kts | 186° |
| 2026-05-05 13:37 | 56.48057 | 12.05951 | 36947 ft | 447 kts | 185° |
| 2026-05-05 13:37 | 56.41879 | 12.05959 | 36957 ft | 447 kts | 185° |
| 2026-05-05 13:38 | 56.35655 | 12.05974 | 36962 ft | 448 kts | 185° |
| 2026-05-05 13:38 | 56.29422 | 12.06000 | 36969 ft | 448 kts | 185° |
| 2026-05-05 13:39 | 56.23191 | 12.06021 | 36951 ft | 448 kts | 185° |
| 2026-05-05 13:39 | 56.16994 | 12.06034 | 36940 ft | 449 kts | 185° |
| 2026-05-05 13:40 | 56.10752 | 12.06062 | 36955 ft | 449 kts | 185° |
| 2026-05-05 13:40 | 56.04506 | 12.06076 | 36966 ft | 449 kts | 185° |
| 2026-05-05 13:41 | 55.98257 | 12.06086 | 36935 ft | 449 kts | 184° |
| 2026-05-05 13:41 | 55.92052 | 12.06104 | 36955 ft | 449 kts | 184° |
| 2026-05-05 13:42 | 55.85794 | 12.06137 | 36958 ft | 449 kts | 184° |
| 2026-05-05 13:42 | 55.79545 | 12.06165 | 36959 ft | 449 kts | 185° |
| 2026-05-05 13:43 | 55.73302 | 12.06170 | 36959 ft | 449 kts | 185° |
| 2026-05-05 13:43 | 55.67101 | 12.06179 | 36939 ft | 448 kts | 184° |
| 2026-05-05 13:44 | 55.60863 | 12.06196 | 36944 ft | 448 kts | 184° |
| 2026-05-05 13:44 | 55.54623 | 12.06203 | 36962 ft | 449 kts | 184° |
| 2026-05-05 13:45 | 55.48378 | 12.06217 | 36961 ft | 448 kts | 184° |
| 2026-05-05 13:45 | 55.42183 | 12.06234 | 36961 ft | 448 kts | 184° |
| 2026-05-05 13:46 | 55.35940 | 12.06194 | 36948 ft | 449 kts | 185° |
| 2026-05-05 13:46 | 55.29696 | 12.05862 | 36935 ft | 450 kts | 186° |
| 2026-05-05 13:47 | 55.23434 | 12.05437 | 36931 ft | 451 kts | 186° |
| 2026-05-05 13:47 | 55.17191 | 12.05070 | 36908 ft | 452 kts | 186° |
| 2026-05-05 13:48 | 55.10902 | 12.04746 | 36943 ft | 452 kts | 185° |
| 2026-05-05 13:48 | 55.04626 | 12.04438 | 36961 ft | 450 kts | 185° |
| 2026-05-05 13:49 | 54.98365 | 12.04117 | 36968 ft | 449 kts | 186° |
| 2026-05-05 13:49 | 54.92174 | 12.03784 | 36946 ft | 449 kts | 186° |
| 2026-05-05 13:50 | 54.85942 | 12.03445 | 36949 ft | 448 kts | 186° |
| 2026-05-05 13:50 | 54.79715 | 12.03118 | 36958 ft | 447 kts | 186° |
| 2026-05-05 13:51 | 54.73490 | 12.02803 | 36965 ft | 447 kts | 186° |
| 2026-05-05 13:51 | 54.67313 | 12.02485 | 36965 ft | 447 kts | 186° |
| 2026-05-05 13:52 | 54.61101 | 12.02161 | 36956 ft | 446 kts | 186° |
| 2026-05-05 13:52 | 54.54896 | 12.01835 | 36960 ft | 446 kts | 186° |
| 2026-05-05 13:53 | 54.48693 | 12.01517 | 36968 ft | 446 kts | 186° |
| 2026-05-05 13:53 | 54.42491 | 12.01202 | 36969 ft | 446 kts | 186° |
| 2026-05-05 13:54 | 54.36298 | 12.00902 | 36963 ft | 445 kts | 186° |
| 2026-05-05 13:54 | 54.30155 | 12.00596 | 36965 ft | 444 kts | 186° |
| 2026-05-05 13:55 | 54.23977 | 12.00271 | 36968 ft | 444 kts | 186° |
| 2026-05-05 13:55 | 54.17805 | 11.99946 | 36957 ft | 444 kts | 186° |
| 2026-05-05 13:56 | 54.11637 | 11.99633 | 36950 ft | 443 kts | 187° |
| 2026-05-05 13:56 | 54.05522 | 11.99333 | 36958 ft | 443 kts | 187° |
| 2026-05-05 13:57 | 53.99367 | 11.99036 | 36952 ft | 442 kts | 187° |
| 2026-05-05 13:57 | 53.93217 | 11.98721 | 36950 ft | 442 kts | 187° |
| 2026-05-05 13:58 | 53.87071 | 11.98402 | 36940 ft | 442 kts | 187° |
| 2026-05-05 13:58 | 53.80930 | 11.98102 | 36941 ft | 441 kts | 187° |
| 2026-05-05 13:59 | 53.71776 | 11.97652 | 36937 ft | 440 kts | 187° |
| 2026-05-05 14:00 | 53.63627 | 11.97251 | 36909 ft | 440 kts | 187° |
| 2026-05-05 14:00 | 53.56489 | 11.96898 | 36935 ft | 438 kts | 187° |
| 2026-05-05 14:01 | 53.51427 | 11.96644 | 36916 ft | 438 kts | 187° |
| 2026-05-05 14:01 | 53.44353 | 11.96294 | 36925 ft | 438 kts | 187° |
| 2026-05-05 14:02 | 53.38264 | 11.96002 | 36887 ft | 438 kts | 186° |
| 2026-05-05 14:02 | 53.33193 | 11.95756 | 36879 ft | 440 kts | 186° |
| 2026-05-05 14:03 | 53.27059 | 11.95459 | 36884 ft | 441 kts | 186° |
| 2026-05-05 14:03 | 53.19911 | 11.95114 | 36881 ft | 443 kts | 186° |
| 2026-05-05 14:04 | 53.14787 | 11.94872 | 36890 ft | 443 kts | 186° |
| 2026-05-05 14:04 | 53.08618 | 11.94570 | 36865 ft | 444 kts | 186° |
| 2026-05-05 14:05 | 53.01420 | 11.94232 | 36877 ft | 446 kts | 186° |
| 2026-05-05 14:05 | 52.95223 | 11.93935 | 36882 ft | 446 kts | 186° |
| 2026-05-05 14:06 | 52.90070 | 11.93683 | 36881 ft | 446 kts | 186° |
| 2026-05-05 14:06 | 52.83863 | 11.93392 | 36889 ft | 446 kts | 186° |
| 2026-05-05 14:07 | 52.77651 | 11.93107 | 36894 ft | 446 kts | 186° |
| 2026-05-05 14:07 | 52.71440 | 11.92815 | 36887 ft | 447 kts | 186° |
| 2026-05-05 14:08 | 52.65264 | 11.92520 | 36890 ft | 447 kts | 186° |
| 2026-05-05 14:08 | 52.59049 | 11.92230 | 36889 ft | 447 kts | 186° |
| 2026-05-05 14:09 | 52.52841 | 11.91945 | 36893 ft | 446 kts | 186° |
| 2026-05-05 14:09 | 52.46639 | 11.91654 | 36895 ft | 446 kts | 186° |
| 2026-05-05 14:10 | 52.40483 | 11.91358 | 36870 ft | 445 kts | 186° |
| 2026-05-05 14:10 | 52.34297 | 11.91072 | 36892 ft | 444 kts | 186° |
| 2026-05-05 14:11 | 52.28125 | 11.90790 | 36896 ft | 443 kts | 186° |
| 2026-05-05 14:11 | 52.21967 | 11.90499 | 36885 ft | 443 kts | 186° |
| 2026-05-05 14:12 | 52.15807 | 11.90214 | 36861 ft | 443 kts | 186° |
| 2026-05-05 14:12 | 52.09707 | 11.89934 | 36887 ft | 440 kts | 186° |
| 2026-05-05 14:13 | 52.03602 | 11.89657 | 36886 ft | 437 kts | 186° |
| 2026-05-05 14:13 | 51.97529 | 11.89386 | 36886 ft | 435 kts | 186° |
| 2026-05-05 14:14 | 51.91483 | 11.89110 | 36865 ft | 434 kts | 186° |
| 2026-05-05 14:14 | 51.85494 | 11.88838 | 36876 ft | 433 kts | 186° |
| 2026-05-05 14:15 | 51.79487 | 11.88558 | 36878 ft | 432 kts | 186° |
| 2026-05-05 14:15 | 51.73490 | 11.88283 | 36873 ft | 431 kts | 186° |
| 2026-05-05 14:16 | 51.67496 | 11.88018 | 36855 ft | 430 kts | 186° |
| 2026-05-05 14:16 | 51.61517 | 11.87757 | 36861 ft | 429 kts | 186° |
| 2026-05-05 14:17 | 51.55660 | 11.87491 | 36861 ft | 429 kts | 186° |
| 2026-05-05 14:17 | 51.49695 | 11.87230 | 36860 ft | 428 kts | 186° |
| 2026-05-05 14:18 | 51.43745 | 11.86971 | 36848 ft | 428 kts | 186° |
| 2026-05-05 14:18 | 51.37853 | 11.86703 | 36853 ft | 427 kts | 186° |
| 2026-05-05 14:19 | 51.31922 | 11.86433 | 36854 ft | 426 kts | 186° |
| 2026-05-05 14:19 | 51.26033 | 11.86170 | 36851 ft | 426 kts | 186° |
| 2026-05-05 14:20 | 51.20109 | 11.85914 | 36828 ft | 426 kts | 185° |
| 2026-05-05 14:20 | 51.14194 | 11.85656 | 36833 ft | 425 kts | 185° |
| 2026-05-05 14:21 | 51.08279 | 11.85392 | 36835 ft | 425 kts | 185° |
| 2026-05-05 14:21 | 51.02413 | 11.85130 | 36835 ft | 425 kts | 185° |
| 2026-05-05 14:22 | 50.96503 | 11.84869 | 36823 ft | 425 kts | 185° |
| 2026-05-05 14:22 | 50.90599 | 11.84620 | 36801 ft | 425 kts | 185° |
| 2026-05-05 14:23 | 50.84685 | 11.84365 | 36809 ft | 425 kts | 185° |
| 2026-05-05 14:23 | 50.78802 | 11.84113 | 36804 ft | 426 kts | 185° |
| 2026-05-05 14:24 | 50.72877 | 11.83858 | 36795 ft | 426 kts | 185° |
| 2026-05-05 14:24 | 50.66946 | 11.83845 | 36799 ft | 430 kts | 174° |
| 2026-05-05 14:25 | 50.64059 | 11.85144 | 36832 ft | 435 kts | 161° |
| 2026-05-05 14:25 | 50.61273 | 11.87022 | 36838 ft | 435 kts | 161° |
| 2026-05-05 14:25 | 50.55736 | 11.90831 | 36848 ft | 434 kts | 160° |
| 2026-05-05 14:26 | 50.50254 | 11.94615 | 36844 ft | 433 kts | 161° |
| 2026-05-05 14:26 | 50.44737 | 11.98387 | 36850 ft | 432 kts | 161° |
| 2026-05-05 14:27 | 50.39222 | 12.02121 | 36851 ft | 432 kts | 161° |
| 2026-05-05 14:27 | 50.33710 | 12.05853 | 36849 ft | 431 kts | 161° |
| 2026-05-05 14:28 | 50.28199 | 12.09580 | 36836 ft | 432 kts | 161° |
| 2026-05-05 14:28 | 50.22718 | 12.13278 | 36812 ft | 432 kts | 160° |
| 2026-05-05 14:29 | 50.17202 | 12.16984 | 36808 ft | 431 kts | 160° |
| 2026-05-05 14:29 | 50.11688 | 12.20687 | 36784 ft | 432 kts | 161° |
| 2026-05-05 14:30 | 50.06170 | 12.24384 | 36785 ft | 432 kts | 160° |
| 2026-05-05 14:30 | 50.00697 | 12.28046 | 36453 ft | 431 kts | 161° |
| 2026-05-05 14:31 | 49.97940 | 12.29882 | 35745 ft | 430 kts | 161° |
| 2026-05-05 14:31 | 49.95188 | 12.31712 | 35026 ft | 431 kts | 161° |
| 2026-05-05 14:31 | 49.92431 | 12.33546 | 34296 ft | 431 kts | 161° |
| 2026-05-05 14:31 | 49.89673 | 12.35376 | 33530 ft | 432 kts | 161° |
| 2026-05-05 14:32 | 49.86898 | 12.37211 | 32602 ft | 435 kts | 161° |
| 2026-05-05 14:32 | 49.84106 | 12.39055 | 31674 ft | 438 kts | 161° |
| 2026-05-05 14:32 | 49.81299 | 12.40909 | 30768 ft | 440 kts | 161° |
| 2026-05-05 14:32 | 49.78515 | 12.42748 | 29863 ft | 442 kts | 161° |
| 2026-05-05 14:33 | 49.75690 | 12.44615 | 29073 ft | 439 kts | 160° |
| 2026-05-05 14:33 | 49.72896 | 12.46460 | 28378 ft | 434 kts | 160° |
| 2026-05-05 14:33 | 49.70137 | 12.48281 | 27698 ft | 429 kts | 160° |
| 2026-05-05 14:33 | 49.67406 | 12.50076 | 27023 ft | 424 kts | 160° |
| 2026-05-05 14:34 | 49.64705 | 12.51843 | 26362 ft | 420 kts | 160° |
| 2026-05-05 14:34 | 49.62021 | 12.53597 | 25719 ft | 417 kts | 160° |
| 2026-05-05 14:34 | 49.59366 | 12.55334 | 25080 ft | 413 kts | 159° |
| 2026-05-05 14:34 | 49.56732 | 12.57059 | 24453 ft | 410 kts | 159° |
| 2026-05-05 14:35 | 49.54158 | 12.58747 | 23842 ft | 406 kts | 159° |
| 2026-05-05 14:35 | 49.51562 | 12.60445 | 23225 ft | 403 kts | 159° |
| 2026-05-05 14:35 | 49.48990 | 12.62120 | 22549 ft | 400 kts | 159° |
| 2026-05-05 14:35 | 49.46441 | 12.63782 | 21917 ft | 396 kts | 158° |
| 2026-05-05 14:36 | 49.44013 | 12.65751 | 21315 ft | 394 kts | 150° |
| 2026-05-05 14:36 | 49.41785 | 12.68186 | 20726 ft | 392 kts | 146° |
| 2026-05-05 14:36 | 49.39459 | 12.70279 | 20162 ft | 385 kts | 158° |
| 2026-05-05 14:36 | 49.36927 | 12.71503 | 19602 ft | 379 kts | 170° |
| 2026-05-05 14:37 | 49.34356 | 12.71927 | 19052 ft | 375 kts | 180° |
| 2026-05-05 14:37 | 49.31774 | 12.71618 | 18521 ft | 371 kts | 190° |
| 2026-05-05 14:37 | 49.29292 | 12.70595 | 18007 ft | 368 kts | 200° |
| 2026-05-05 14:37 | 49.26959 | 12.69008 | 17426 ft | 366 kts | 205° |
| 2026-05-05 14:38 | 49.24656 | 12.67377 | 16880 ft | 363 kts | 204° |
| 2026-05-05 14:38 | 49.22373 | 12.65766 | 16345 ft | 360 kts | 204° |
| 2026-05-05 14:38 | 49.20105 | 12.64161 | 15813 ft | 358 kts | 205° |
| 2026-05-05 14:38 | 49.17850 | 12.62553 | 15294 ft | 356 kts | 205° |
| 2026-05-05 14:39 | 49.15611 | 12.60950 | 14784 ft | 354 kts | 205° |
| 2026-05-05 14:39 | 49.13418 | 12.59379 | 14295 ft | 352 kts | 205° |
| 2026-05-05 14:39 | 49.11205 | 12.57795 | 13801 ft | 350 kts | 205° |
| 2026-05-05 14:39 | 49.09000 | 12.56223 | 13276 ft | 349 kts | 205° |
| 2026-05-05 14:40 | 49.06809 | 12.54666 | 12723 ft | 346 kts | 205° |
| 2026-05-05 14:40 | 49.04628 | 12.53116 | 12151 ft | 345 kts | 205° |
| 2026-05-05 14:40 | 49.02461 | 12.51575 | 11621 ft | 342 kts | 205° |
| 2026-05-05 14:40 | 49.00310 | 12.50039 | 11102 ft | 340 kts | 205° |
| 2026-05-05 14:41 | 48.98180 | 12.48512 | 10582 ft | 337 kts | 205° |
| 2026-05-05 14:41 | 48.96064 | 12.47002 | 10058 ft | 335 kts | 204° |
| 2026-05-05 14:41 | 48.93975 | 12.45572 | 9635 ft | 330 kts | 204° |
| 2026-05-05 14:41 | 48.91914 | 12.44208 | 9508 ft | 316 kts | 203° |
| 2026-05-05 14:42 | 48.89949 | 12.42923 | 9366 ft | 295 kts | 203° |
| 2026-05-05 14:42 | 48.88121 | 12.41729 | 9003 ft | 280 kts | 203° |
| 2026-05-05 14:42 | 48.86349 | 12.40567 | 8378 ft | 276 kts | 203° |
| 2026-05-05 14:42 | 48.84601 | 12.39416 | 7725 ft | 272 kts | 204° |
| 2026-05-05 14:43 | 48.82872 | 12.38276 | 7082 ft | 270 kts | 204° |
| 2026-05-05 14:43 | 48.81185 | 12.37163 | 6465 ft | 267 kts | 204° |
| 2026-05-05 14:43 | 48.79494 | 12.36045 | 5882 ft | 264 kts | 204° |
| 2026-05-05 14:43 | 48.77812 | 12.34933 | 5274 ft | 262 kts | 204° |
| 2026-05-05 14:44 | 48.76142 | 12.33830 | 4885 ft | 259 kts | 204° |
| 2026-05-05 14:44 | 48.74489 | 12.32741 | 4890 ft | 261 kts | 204° |
| 2026-05-05 14:44 | 48.72813 | 12.31638 | 4886 ft | 263 kts | 204° |
| 2026-05-05 14:44 | 48.71128 | 12.30531 | 4891 ft | 264 kts | 204° |
| 2026-05-05 14:45 | 48.69436 | 12.29424 | 4895 ft | 265 kts | 204° |
| 2026-05-05 14:45 | 48.67770 | 12.28333 | 4897 ft | 263 kts | 204° |
| 2026-05-05 14:45 | 48.66088 | 12.27231 | 4898 ft | 264 kts | 204° |
| 2026-05-05 14:45 | 48.64409 | 12.26131 | 4902 ft | 262 kts | 204° |
| 2026-05-05 14:46 | 48.62751 | 12.25043 | 4901 ft | 259 kts | 204° |
| 2026-05-05 14:46 | 48.61089 | 12.23953 | 4903 ft | 260 kts | 204° |
| 2026-05-05 14:46 | 48.59429 | 12.22865 | 4909 ft | 260 kts | 204° |
| 2026-05-05 14:46 | 48.57766 | 12.21776 | 4902 ft | 262 kts | 204° |
| 2026-05-05 14:47 | 48.56088 | 12.20678 | 4919 ft | 263 kts | 205° |
| 2026-05-05 14:47 | 48.54409 | 12.19581 | 4916 ft | 264 kts | 204° |
| 2026-05-05 14:47 | 48.52742 | 12.18493 | 4916 ft | 265 kts | 204° |
| 2026-05-05 14:47 | 48.51055 | 12.17394 | 4923 ft | 264 kts | 204° |
| 2026-05-05 14:48 | 48.49373 | 12.16299 | 4925 ft | 264 kts | 204° |
| 2026-05-05 14:48 | 48.47707 | 12.15215 | 4927 ft | 256 kts | 204° |
| 2026-05-05 14:48 | 48.46109 | 12.14179 | 4918 ft | 242 kts | 204° |
| 2026-05-05 14:48 | 48.44616 | 12.13214 | 4915 ft | 225 kts | 204° |
| 2026-05-05 14:49 | 48.43224 | 12.12315 | 4929 ft | 214 kts | 204° |
| 2026-05-05 14:49 | 48.41862 | 12.11431 | 4933 ft | 213 kts | 206° |
| 2026-05-05 14:49 | 48.40509 | 12.10517 | 4933 ft | 214 kts | 211° |
| 2026-05-05 14:49 | 48.39380 | 12.09146 | 4855 ft | 211 kts | 232° |
| 2026-05-05 14:50 | 48.38658 | 12.07250 | 4673 ft | 209 kts | 252° |
| 2026-05-05 14:50 | 48.38408 | 12.05107 | 4427 ft | 209 kts | 264° |
| 2026-05-05 14:50 | 48.38250 | 12.02925 | 4163 ft | 209 kts | 264° |
| 2026-05-05 14:50 | 48.38096 | 12.00842 | 3890 ft | 192 kts | 263° |
| 2026-05-05 14:51 | 48.37953 | 11.98915 | 3622 ft | 179 kts | 263° |
| 2026-05-05 14:51 | 48.37819 | 11.97124 | 3429 ft | 167 kts | 264° |
| 2026-05-05 14:51 | 48.37690 | 11.95404 | 3214 ft | 162 kts | 262° |
| 2026-05-05 14:51 | 48.37568 | 11.93774 | 2998 ft | 150 kts | 263° |
| 2026-05-05 14:52 | 48.37455 | 11.92264 | 2796 ft | 140 kts | 263° |
| 2026-05-05 14:52 | 48.37347 | 11.90829 | 2623 ft | 136 kts | 263° |
| 2026-05-05 14:52 | 48.37241 | 11.89429 | 2446 ft | 138 kts | 262° |
| 2026-05-05 14:52 | 48.37132 | 11.87993 | 2248 ft | 139 kts | 263° |
| 2026-05-05 14:53 | 48.37022 | 11.86541 | 2075 ft | 141 kts | 263° |
| 2026-05-05 14:53 | 48.36911 | 11.85086 | 1865 ft | 141 kts | 264° |
| 2026-05-05 14:53 | 48.36796 | 11.83650 | 1705 ft | 136 kts | 266° |
| 2026-05-05 14:53 | 48.36695 | 11.82244 | 1541 ft | 135 kts | 265° |
| 2026-05-05 14:54 | 48.36599 | 11.80904 | 1479 ft | 113 kts | 258° |
| 2026-05-05 14:54 | 48.36539 | 11.80103 | 1485 ft | 28 kts | 264° |
| 2026-05-05 14:54 | 48.36498 | 11.79841 | 1482 ft | 25 kts | 249° |
| 2026-05-05 14:54 | 48.36408 | 11.79617 | 1479 ft | 25 kts | 231° |
| 2026-05-05 14:55 | 48.36319 | 11.79437 | 1475 ft | 13 kts | 235° |
| 2026-05-05 14:55 | 48.36281 | 11.79354 | 1471 ft | 0 kts | 235° |
| 2026-05-05 14:55 | 48.36272 | 11.79337 | 1480 ft | 9 kts | 229° |
| 2026-05-05 14:55 | 48.36159 | 11.79302 | 1485 ft | 21 kts | 172° |
| 2026-05-05 14:56 | 48.36009 | 11.79329 | 1480 ft | 23 kts | 174° |
| 2026-05-05 14:56 | 48.35909 | 11.79387 | 1475 ft | 13 kts | 119° |
| 2026-05-05 14:56 | 48.35881 | 11.79503 | 1476 ft | 10 kts | 141° |
| 2026-05-05 14:56 | 48.35799 | 11.79530 | 1485 ft | 16 kts | 175° |
| 2026-05-05 14:57 | 48.35708 | 11.79546 | 1483 ft | 12 kts | 173° |
| 2026-05-05 14:57 | 48.35687 | 11.79611 | 1482 ft | 6 kts | 86° |
| 2026-05-05 14:57 | 48.35691 | 11.79670 | 1478 ft | 5 kts | 84° |
| 2026-05-05 14:57 | 48.35694 | 11.79707 | 1485 ft | 0 kts | 83° |